sensor_id;sensor_type;location;lat;lon;timestamp;P1;durP1;ratioP1;P2;durP2;ratioP2
11052;SDS011;55230;42.602;23.470;2023-12-28T00:02:11;7.22;;;5.97;;
11052;SDS011;55230;42.602;23.470;2023-12-28T00:04:38;10.23;;;6.28;;
11052;SDS011;55230;42.602;23.470;2023-12-28T00:07:03;6.47;;;5.22;;
11052;SDS011;55230;42.602;23.470;2023-12-28T00:09:29;9.35;;;5.65;;
11052;SDS011;55230;42.602;23.470;2023-12-28T00:11:54;20.60;;;7.80;;
11052;SDS011;55230;42.602;23.470;2023-12-28T00:14:20;21.52;;;9.93;;
11052;SDS011;55230;42.602;23.470;2023-12-28T00:16:46;22.30;;;10.30;;
11052;SDS011;55230;42.602;23.470;2023-12-28T00:19:11;26.25;;;10.57;;
11052;SDS011;55230;42.602;23.470;2023-12-28T00:21:36;26.15;;;11.63;;
11052;SDS011;55230;42.602;23.470;2023-12-28T00:24:02;20.50;;;10.10;;
11052;SDS011;55230;42.602;23.470;2023-12-28T00:26:27;15.10;;;8.43;;
11052;SDS011;55230;42.602;23.470;2023-12-28T00:28:52;24.05;;;11.80;;
11052;SDS011;55230;42.602;23.470;2023-12-28T00:31:18;20.25;;;10.98;;
11052;SDS011;55230;42.602;23.470;2023-12-28T00:33:43;15.60;;;9.75;;
11052;SDS011;55230;42.602;23.470;2023-12-28T00:36:09;14.57;;;9.15;;
11052;SDS011;55230;42.602;23.470;2023-12-28T00:38:34;17.10;;;8.32;;
11052;SDS011;55230;42.602;23.470;2023-12-28T00:41:00;11.35;;;6.95;;
11052;SDS011;55230;42.602;23.470;2023-12-28T00:43:25;9.25;;;5.20;;
11052;SDS011;55230;42.602;23.470;2023-12-28T00:45:51;9.05;;;5.90;;
11052;SDS011;55230;42.602;23.470;2023-12-28T00:48:16;7.15;;;5.55;;
11052;SDS011;55230;42.602;23.470;2023-12-28T00:50:41;8.73;;;5.88;;
11052;SDS011;55230;42.602;23.470;2023-12-28T00:53:07;9.45;;;7.55;;
11052;SDS011;55230;42.602;23.470;2023-12-28T00:55:32;7.55;;;6.03;;
11052;SDS011;55230;42.602;23.470;2023-12-28T00:57:57;6.68;;;5.53;;
11052;SDS011;55230;42.602;23.470;2023-12-28T01:00:23;6.43;;;5.18;;
11052;SDS011;55230;42.602;23.470;2023-12-28T01:02:48;5.90;;;4.95;;
11052;SDS011;55230;42.602;23.470;2023-12-28T01:05:14;9.32;;;5.70;;
11052;SDS011;55230;42.602;23.470;2023-12-28T01:07:40;12.57;;;5.72;;
11052;SDS011;55230;42.602;23.470;2023-12-28T01:10:05;11.02;;;6.18;;
11052;SDS011;55230;42.602;23.470;2023-12-28T01:12:33;10.02;;;6.45;;
11052;SDS011;55230;42.602;23.470;2023-12-28T01:14:58;7.20;;;5.43;;
11052;SDS011;55230;42.602;23.470;2023-12-28T01:17:24;6.50;;;5.15;;
11052;SDS011;55230;42.602;23.470;2023-12-28T01:19:49;10.57;;;4.60;;
11052;SDS011;55230;42.602;23.470;2023-12-28T01:22:15;8.18;;;4.20;;
11052;SDS011;55230;42.602;23.470;2023-12-28T01:24:40;4.10;;;3.70;;
11052;SDS011;55230;42.602;23.470;2023-12-28T01:27:06;6.38;;;3.80;;
11052;SDS011;55230;42.602;23.470;2023-12-28T01:29:31;5.20;;;4.70;;
11052;SDS011;55230;42.602;23.470;2023-12-28T01:31:57;6.43;;;3.75;;
11052;SDS011;55230;42.602;23.470;2023-12-28T01:34:23;10.57;;;4.40;;
11052;SDS011;55230;42.602;23.470;2023-12-28T01:36:48;7.15;;;4.60;;
11052;SDS011;55230;42.602;23.470;2023-12-28T01:39:13;8.70;;;4.15;;
11052;SDS011;55230;42.602;23.470;2023-12-28T01:41:40;5.95;;;4.72;;
11052;SDS011;55230;42.602;23.470;2023-12-28T01:44:06;5.75;;;4.22;;
11052;SDS011;55230;42.602;23.470;2023-12-28T01:46:31;6.15;;;4.57;;
11052;SDS011;55230;42.602;23.470;2023-12-28T01:48:58;4.68;;;3.75;;
11052;SDS011;55230;42.602;23.470;2023-12-28T01:51:24;4.95;;;3.58;;
11052;SDS011;55230;42.602;23.470;2023-12-28T01:53:50;4.82;;;3.25;;
11052;SDS011;55230;42.602;23.470;2023-12-28T01:56:18;4.88;;;3.80;;
11052;SDS011;55230;42.602;23.470;2023-12-28T01:58:44;6.82;;;3.70;;
11052;SDS011;55230;42.602;23.470;2023-12-28T02:01:14;6.38;;;4.43;;
11052;SDS011;55230;42.602;23.470;2023-12-28T02:03:39;3.38;;;3.08;;
11052;SDS011;55230;42.602;23.470;2023-12-28T02:06:06;9.35;;;4.65;;
11052;SDS011;55230;42.602;23.470;2023-12-28T02:08:32;9.55;;;5.97;;
11052;SDS011;55230;42.602;23.470;2023-12-28T02:10:58;8.13;;;5.13;;
11052;SDS011;55230;42.602;23.470;2023-12-28T02:13:24;10.65;;;4.97;;
11052;SDS011;55230;42.602;23.470;2023-12-28T02:16:03;4.75;;;4.07;;
11052;SDS011;55230;42.602;23.470;2023-12-28T02:18:46;12.82;;;6.07;;
11052;SDS011;55230;42.602;23.470;2023-12-28T02:21:16;22.23;;;11.13;;
11052;SDS011;55230;42.602;23.470;2023-12-28T02:23:49;21.15;;;12.00;;
11052;SDS011;55230;42.602;23.470;2023-12-28T02:26:15;16.83;;;7.45;;
11052;SDS011;55230;42.602;23.470;2023-12-28T02:28:44;10.00;;;5.93;;
11052;SDS011;55230;42.602;23.470;2023-12-28T02:31:14;9.70;;;5.97;;
11052;SDS011;55230;42.602;23.470;2023-12-28T02:33:54;4.05;;;3.17;;
11052;SDS011;55230;42.602;23.470;2023-12-28T02:36:24;5.57;;;3.45;;
11052;SDS011;55230;42.602;23.470;2023-12-28T02:38:52;5.45;;;2.90;;
11052;SDS011;55230;42.602;23.470;2023-12-28T02:41:21;7.78;;;4.05;;
11052;SDS011;55230;42.602;23.470;2023-12-28T02:43:47;5.22;;;3.30;;
11052;SDS011;55230;42.602;23.470;2023-12-28T02:46:13;5.78;;;3.53;;
11052;SDS011;55230;42.602;23.470;2023-12-28T02:48:38;8.77;;;2.90;;
11052;SDS011;55230;42.602;23.470;2023-12-28T02:51:04;4.13;;;3.72;;
11052;SDS011;55230;42.602;23.470;2023-12-28T02:53:29;4.03;;;3.40;;
11052;SDS011;55230;42.602;23.470;2023-12-28T02:55:55;3.65;;;3.35;;
11052;SDS011;55230;42.602;23.470;2023-12-28T02:58:20;4.82;;;3.25;;
11052;SDS011;55230;42.602;23.470;2023-12-28T03:00:46;8.82;;;4.68;;
11052;SDS011;55230;42.602;23.470;2023-12-28T03:03:11;5.63;;;4.63;;
11052;SDS011;55230;42.602;23.470;2023-12-28T03:05:36;5.63;;;4.90;;
11052;SDS011;55230;42.602;23.470;2023-12-28T03:08:02;7.20;;;6.45;;
11052;SDS011;55230;42.602;23.470;2023-12-28T03:10:27;7.72;;;6.93;;
11052;SDS011;55230;42.602;23.470;2023-12-28T03:12:53;4.72;;;4.30;;
11052;SDS011;55230;42.602;23.470;2023-12-28T03:15:18;5.75;;;5.15;;
11052;SDS011;55230;42.602;23.470;2023-12-28T03:17:44;7.47;;;5.03;;
11052;SDS011;55230;42.602;23.470;2023-12-28T03:20:09;6.18;;;4.90;;
11052;SDS011;55230;42.602;23.470;2023-12-28T03:22:35;8.05;;;6.60;;
11052;SDS011;55230;42.602;23.470;2023-12-28T03:25:00;10.48;;;8.73;;
11052;SDS011;55230;42.602;23.470;2023-12-28T03:27:26;7.50;;;5.72;;
11052;SDS011;55230;42.602;23.470;2023-12-28T03:29:51;10.05;;;7.68;;
11052;SDS011;55230;42.602;23.470;2023-12-28T03:32:17;10.07;;;6.72;;
11052;SDS011;55230;42.602;23.470;2023-12-28T03:34:42;7.80;;;5.47;;
11052;SDS011;55230;42.602;23.470;2023-12-28T03:37:07;7.18;;;5.38;;
11052;SDS011;55230;42.602;23.470;2023-12-28T03:39:34;9.13;;;4.82;;
11052;SDS011;55230;42.602;23.470;2023-12-28T03:41:59;7.47;;;5.15;;
11052;SDS011;55230;42.602;23.470;2023-12-28T03:44:25;6.70;;;5.00;;
11052;SDS011;55230;42.602;23.470;2023-12-28T03:46:50;7.18;;;5.57;;
11052;SDS011;55230;42.602;23.470;2023-12-28T03:49:19;8.50;;;7.05;;
11052;SDS011;55230;42.602;23.470;2023-12-28T03:51:46;15.02;;;8.45;;
11052;SDS011;55230;42.602;23.470;2023-12-28T03:54:15;13.73;;;8.02;;
11052;SDS011;55230;42.602;23.470;2023-12-28T03:56:41;10.85;;;6.38;;
11052;SDS011;55230;42.602;23.470;2023-12-28T03:59:08;13.63;;;6.43;;
11052;SDS011;55230;42.602;23.470;2023-12-28T04:01:33;9.13;;;5.18;;
11052;SDS011;55230;42.602;23.470;2023-12-28T04:03:59;9.48;;;7.07;;
11052;SDS011;55230;42.602;23.470;2023-12-28T04:06:24;8.68;;;6.00;;
11052;SDS011;55230;42.602;23.470;2023-12-28T04:08:50;8.15;;;5.25;;
11052;SDS011;55230;42.602;23.470;2023-12-28T04:11:15;10.15;;;6.47;;
11052;SDS011;55230;42.602;23.470;2023-12-28T04:13:41;11.10;;;5.60;;
11052;SDS011;55230;42.602;23.470;2023-12-28T04:16:06;7.45;;;5.88;;
11052;SDS011;55230;42.602;23.470;2023-12-28T04:18:31;10.93;;;7.25;;
11052;SDS011;55230;42.602;23.470;2023-12-28T04:20:58;19.73;;;10.43;;
11052;SDS011;55230;42.602;23.470;2023-12-28T04:23:23;24.45;;;15.00;;
11052;SDS011;55230;42.602;23.470;2023-12-28T04:25:49;34.20;;;21.05;;
11052;SDS011;55230;42.602;23.470;2023-12-28T04:28:14;18.08;;;12.73;;
11052;SDS011;55230;42.602;23.470;2023-12-28T04:30:40;14.82;;;7.47;;
11052;SDS011;55230;42.602;23.470;2023-12-28T04:33:05;13.48;;;7.30;;
11052;SDS011;55230;42.602;23.470;2023-12-28T04:35:30;11.70;;;6.05;;
11052;SDS011;55230;42.602;23.470;2023-12-28T04:37:56;9.02;;;6.65;;
11052;SDS011;55230;42.602;23.470;2023-12-28T04:40:21;19.85;;;9.20;;
11052;SDS011;55230;42.602;23.470;2023-12-28T04:42:47;18.75;;;12.05;;
11052;SDS011;55230;42.602;23.470;2023-12-28T04:45:12;12.65;;;8.20;;
11052;SDS011;55230;42.602;23.470;2023-12-28T04:47:38;12.02;;;6.50;;
11052;SDS011;55230;42.602;23.470;2023-12-28T04:50:04;5.05;;;4.50;;
11052;SDS011;55230;42.602;23.470;2023-12-28T04:52:31;5.93;;;4.70;;
11052;SDS011;55230;42.602;23.470;2023-12-28T04:54:56;5.25;;;3.65;;
11052;SDS011;55230;42.602;23.470;2023-12-28T04:57:22;4.70;;;4.15;;
11052;SDS011;55230;42.602;23.470;2023-12-28T04:59:52;4.43;;;3.63;;
11052;SDS011;55230;42.602;23.470;2023-12-28T05:02:18;7.10;;;4.00;;
11052;SDS011;55230;42.602;23.470;2023-12-28T05:04:43;5.90;;;4.47;;
11052;SDS011;55230;42.602;23.470;2023-12-28T05:07:09;4.50;;;3.42;;
11052;SDS011;55230;42.602;23.470;2023-12-28T05:09:35;6.65;;;3.85;;
11052;SDS011;55230;42.602;23.470;2023-12-28T05:12:01;3.85;;;3.22;;
11052;SDS011;55230;42.602;23.470;2023-12-28T05:14:27;7.15;;;4.68;;
11052;SDS011;55230;42.602;23.470;2023-12-28T05:16:52;7.80;;;5.60;;
11052;SDS011;55230;42.602;23.470;2023-12-28T05:19:18;4.57;;;4.05;;
11052;SDS011;55230;42.602;23.470;2023-12-28T05:21:43;14.68;;;7.95;;
11052;SDS011;55230;42.602;23.470;2023-12-28T05:24:09;8.15;;;5.75;;
11052;SDS011;55230;42.602;23.470;2023-12-28T05:26:34;14.60;;;7.68;;
11052;SDS011;55230;42.602;23.470;2023-12-28T05:29:00;18.98;;;9.05;;
11052;SDS011;55230;42.602;23.470;2023-12-28T05:31:25;20.25;;;11.90;;
11052;SDS011;55230;42.602;23.470;2023-12-28T05:33:51;15.20;;;9.70;;
11052;SDS011;55230;42.602;23.470;2023-12-28T05:36:16;22.02;;;9.32;;
11052;SDS011;55230;42.602;23.470;2023-12-28T05:38:42;27.15;;;13.43;;
11052;SDS011;55230;42.602;23.470;2023-12-28T05:41:09;22.70;;;11.93;;
11052;SDS011;55230;42.602;23.470;2023-12-28T05:43:35;18.75;;;10.30;;
11052;SDS011;55230;42.602;23.470;2023-12-28T05:46:01;30.08;;;16.55;;
11052;SDS011;55230;42.602;23.470;2023-12-28T05:48:26;35.15;;;18.40;;
11052;SDS011;55230;42.602;23.470;2023-12-28T05:50:52;19.77;;;12.45;;
11052;SDS011;55230;42.602;23.470;2023-12-28T05:53:17;22.25;;;14.50;;
11052;SDS011;55230;42.602;23.470;2023-12-28T05:55:43;19.15;;;14.48;;
11052;SDS011;55230;42.602;23.470;2023-12-28T05:58:11;23.00;;;14.65;;
11052;SDS011;55230;42.602;23.470;2023-12-28T06:00:36;18.02;;;13.65;;
11052;SDS011;55230;42.602;23.470;2023-12-28T06:03:03;17.80;;;12.05;;
11052;SDS011;55230;42.602;23.470;2023-12-28T06:22:33;15.35;;;9.48;;
11052;SDS011;55230;42.602;23.470;2023-12-28T06:36:33;10.50;;;5.90;;
11052;SDS011;55230;42.602;23.470;2023-12-28T06:38:59;8.98;;;6.22;;
11052;SDS011;55230;42.602;23.470;2023-12-28T06:41:25;16.08;;;10.63;;
11052;SDS011;55230;42.602;23.470;2023-12-28T06:43:51;23.60;;;15.38;;
11052;SDS011;55230;42.602;23.470;2023-12-28T06:46:17;14.77;;;10.95;;
11052;SDS011;55230;42.602;23.470;2023-12-28T06:48:43;21.38;;;12.27;;
11052;SDS011;55230;42.602;23.470;2023-12-28T06:51:09;20.45;;;12.82;;
11052;SDS011;55230;42.602;23.470;2023-12-28T07:01:25;21.38;;;12.18;;
11052;SDS011;55230;42.602;23.470;2023-12-28T07:18:31;17.65;;;11.95;;
11052;SDS011;55230;42.602;23.470;2023-12-28T07:20:57;20.10;;;13.60;;
11052;SDS011;55230;42.602;23.470;2023-12-28T07:23:22;25.13;;;16.08;;
11052;SDS011;55230;42.602;23.470;2023-12-28T07:25:47;27.20;;;15.20;;
11052;SDS011;55230;42.602;23.470;2023-12-28T07:28:13;43.38;;;22.27;;
11052;SDS011;55230;42.602;23.470;2023-12-28T07:30:38;40.92;;;20.67;;
11052;SDS011;55230;42.602;23.470;2023-12-28T07:33:04;32.80;;;19.40;;
11052;SDS011;55230;42.602;23.470;2023-12-28T07:35:29;32.10;;;17.80;;
11052;SDS011;55230;42.602;23.470;2023-12-28T07:37:54;23.58;;;15.07;;
11052;SDS011;55230;42.602;23.470;2023-12-28T07:40:20;22.00;;;14.38;;
11052;SDS011;55230;42.602;23.470;2023-12-28T07:42:45;20.67;;;13.82;;
11052;SDS011;55230;42.602;23.470;2023-12-28T07:45:11;22.02;;;12.82;;
11052;SDS011;55230;42.602;23.470;2023-12-28T07:47:36;25.60;;;14.80;;
11052;SDS011;55230;42.602;23.470;2023-12-28T07:50:02;26.98;;;16.08;;
11052;SDS011;55230;42.602;23.470;2023-12-28T07:52:28;27.25;;;16.75;;
11052;SDS011;55230;42.602;23.470;2023-12-28T07:54:54;23.58;;;16.50;;
11052;SDS011;55230;42.602;23.470;2023-12-28T07:57:19;20.17;;;12.95;;
11052;SDS011;55230;42.602;23.470;2023-12-28T07:59:44;20.15;;;14.40;;
11052;SDS011;55230;42.602;23.470;2023-12-28T08:02:10;16.92;;;12.60;;
11052;SDS011;55230;42.602;23.470;2023-12-28T08:04:35;23.30;;;15.25;;
11052;SDS011;55230;42.602;23.470;2023-12-28T08:07:00;23.45;;;16.80;;
11052;SDS011;55230;42.602;23.470;2023-12-28T08:09:26;24.17;;;18.25;;
11052;SDS011;55230;42.602;23.470;2023-12-28T08:11:51;32.00;;;20.58;;
11052;SDS011;55230;42.602;23.470;2023-12-28T08:14:17;32.17;;;22.52;;
11052;SDS011;55230;42.602;23.470;2023-12-28T08:16:42;38.78;;;24.58;;
11052;SDS011;55230;42.602;23.470;2023-12-28T08:19:08;43.35;;;29.73;;
11052;SDS011;55230;42.602;23.470;2023-12-28T08:21:33;44.20;;;25.58;;
11052;SDS011;55230;42.602;23.470;2023-12-28T08:23:58;46.55;;;24.60;;
11052;SDS011;55230;42.602;23.470;2023-12-28T08:26:24;47.50;;;26.45;;
11052;SDS011;55230;42.602;23.470;2023-12-28T08:28:49;46.90;;;26.67;;
11052;SDS011;55230;42.602;23.470;2023-12-28T08:31:15;49.80;;;26.63;;
11052;SDS011;55230;42.602;23.470;2023-12-28T08:33:40;56.20;;;28.08;;
11052;SDS011;55230;42.602;23.470;2023-12-28T08:36:09;52.72;;;29.17;;
11052;SDS011;55230;42.602;23.470;2023-12-28T08:38:35;46.95;;;25.95;;
11052;SDS011;55230;42.602;23.470;2023-12-28T08:41:00;27.60;;;18.23;;
11052;SDS011;55230;42.602;23.470;2023-12-28T08:43:28;38.13;;;22.23;;
11052;SDS011;55230;42.602;23.470;2023-12-28T08:45:54;39.40;;;20.90;;
11052;SDS011;55230;42.602;23.470;2023-12-28T08:48:20;63.15;;;32.30;;
11052;SDS011;55230;42.602;23.470;2023-12-28T08:50:45;31.85;;;18.02;;
11052;SDS011;55230;42.602;23.470;2023-12-28T08:53:11;25.95;;;15.73;;
11052;SDS011;55230;42.602;23.470;2023-12-28T08:55:36;21.30;;;15.00;;
11052;SDS011;55230;42.602;23.470;2023-12-28T08:58:01;26.08;;;13.98;;
11052;SDS011;55230;42.602;23.470;2023-12-28T09:00:27;26.58;;;15.38;;
11052;SDS011;55230;42.602;23.470;2023-12-28T09:02:53;30.30;;;17.92;;
11052;SDS011;55230;42.602;23.470;2023-12-28T09:05:18;34.80;;;21.13;;
11052;SDS011;55230;42.602;23.470;2023-12-28T09:07:43;21.10;;;15.90;;
11052;SDS011;55230;42.602;23.470;2023-12-28T09:10:12;19.80;;;13.68;;
11052;SDS011;55230;42.602;23.470;2023-12-28T09:12:39;15.63;;;10.38;;
11052;SDS011;55230;42.602;23.470;2023-12-28T09:15:05;18.02;;;12.75;;
11052;SDS011;55230;42.602;23.470;2023-12-28T09:17:31;22.08;;;11.95;;
11052;SDS011;55230;42.602;23.470;2023-12-28T09:19:56;21.90;;;13.93;;
11052;SDS011;55230;42.602;23.470;2023-12-28T09:22:23;19.90;;;11.93;;
11052;SDS011;55230;42.602;23.470;2023-12-28T09:24:48;14.82;;;11.07;;
11052;SDS011;55230;42.602;23.470;2023-12-28T09:27:14;20.00;;;12.70;;
11052;SDS011;55230;42.602;23.470;2023-12-28T09:29:39;16.63;;;12.50;;
11052;SDS011;55230;42.602;23.470;2023-12-28T09:32:05;19.13;;;13.20;;
11052;SDS011;55230;42.602;23.470;2023-12-28T09:34:30;19.55;;;11.90;;
11052;SDS011;55230;42.602;23.470;2023-12-28T09:36:56;22.33;;;14.40;;
11052;SDS011;55230;42.602;23.470;2023-12-28T09:39:21;25.58;;;13.63;;
11052;SDS011;55230;42.602;23.470;2023-12-28T10:00:04;17.42;;;11.90;;
11052;SDS011;55230;42.602;23.470;2023-12-28T10:06:22;18.90;;;14.70;;
11052;SDS011;55230;42.602;23.470;2023-12-28T10:08:48;18.92;;;13.35;;
11052;SDS011;55230;42.602;23.470;2023-12-28T10:11:17;15.93;;;11.85;;
11052;SDS011;55230;42.602;23.470;2023-12-28T10:13:44;19.27;;;12.52;;
11052;SDS011;55230;42.602;23.470;2023-12-28T10:16:11;21.77;;;14.35;;
11052;SDS011;55230;42.602;23.470;2023-12-28T10:18:40;29.33;;;17.70;;
11052;SDS011;55230;42.602;23.470;2023-12-28T10:21:09;38.55;;;20.08;;
11052;SDS011;55230;42.602;23.470;2023-12-28T10:23:34;32.50;;;19.95;;
11052;SDS011;55230;42.602;23.470;2023-12-28T10:26:00;26.90;;;16.88;;
11052;SDS011;55230;42.602;23.470;2023-12-28T10:28:26;25.27;;;16.55;;
11052;SDS011;55230;42.602;23.470;2023-12-28T10:30:55;20.67;;;14.93;;
11052;SDS011;55230;42.602;23.470;2023-12-28T10:33:21;24.88;;;16.35;;
11052;SDS011;55230;42.602;23.470;2023-12-28T10:35:47;27.27;;;18.17;;
11052;SDS011;55230;42.602;23.470;2023-12-28T10:38:16;28.77;;;18.70;;
11052;SDS011;55230;42.602;23.470;2023-12-28T10:40:42;18.13;;;13.25;;
11052;SDS011;55230;42.602;23.470;2023-12-28T10:43:11;15.60;;;11.25;;
11052;SDS011;55230;42.602;23.470;2023-12-28T10:45:39;15.10;;;11.45;;
11052;SDS011;55230;42.602;23.470;2023-12-28T10:50:37;19.30;;;13.95;;
11052;SDS011;55230;42.602;23.470;2023-12-28T10:53:28;24.75;;;17.73;;
11052;SDS011;55230;42.602;23.470;2023-12-28T10:59:28;18.13;;;12.77;;
11052;SDS011;55230;42.602;23.470;2023-12-28T11:02:05;25.95;;;16.38;;
11052;SDS011;55230;42.602;23.470;2023-12-28T11:07:08;18.52;;;13.40;;
11052;SDS011;55230;42.602;23.470;2023-12-28T11:09:35;24.67;;;18.45;;
11052;SDS011;55230;42.602;23.470;2023-12-28T11:12:02;23.40;;;16.45;;
11052;SDS011;55230;42.602;23.470;2023-12-28T11:14:33;18.75;;;14.50;;
11052;SDS011;55230;42.602;23.470;2023-12-28T11:16:59;20.17;;;14.10;;
11052;SDS011;55230;42.602;23.470;2023-12-28T11:19:28;19.60;;;13.48;;
11052;SDS011;55230;42.602;23.470;2023-12-28T11:21:55;21.88;;;13.50;;
11052;SDS011;55230;42.602;23.470;2023-12-28T11:24:21;18.73;;;12.98;;
11052;SDS011;55230;42.602;23.470;2023-12-28T11:26:54;21.85;;;13.93;;
11052;SDS011;55230;42.602;23.470;2023-12-28T11:29:20;27.13;;;16.73;;
11052;SDS011;55230;42.602;23.470;2023-12-28T11:31:56;18.23;;;12.70;;
11052;SDS011;55230;42.602;23.470;2023-12-28T11:34:27;18.05;;;11.23;;
11052;SDS011;55230;42.602;23.470;2023-12-28T11:36:54;19.17;;;11.35;;
11052;SDS011;55230;42.602;23.470;2023-12-28T11:39:41;14.75;;;10.50;;
11052;SDS011;55230;42.602;23.470;2023-12-28T11:42:09;11.48;;;9.75;;
11052;SDS011;55230;42.602;23.470;2023-12-28T11:44:42;20.00;;;11.13;;
11052;SDS011;55230;42.602;23.470;2023-12-28T11:47:12;15.45;;;11.25;;
11052;SDS011;55230;42.602;23.470;2023-12-28T11:49:42;16.05;;;9.82;;
11052;SDS011;55230;42.602;23.470;2023-12-28T11:52:11;15.82;;;11.60;;
11052;SDS011;55230;42.602;23.470;2023-12-28T11:54:48;15.10;;;11.88;;
11052;SDS011;55230;42.602;23.470;2023-12-28T11:57:15;20.67;;;11.23;;
11052;SDS011;55230;42.602;23.470;2023-12-28T11:59:40;16.42;;;11.13;;
11052;SDS011;55230;42.602;23.470;2023-12-28T12:02:06;14.95;;;12.20;;
11052;SDS011;55230;42.602;23.470;2023-12-28T12:04:33;17.60;;;11.18;;
11052;SDS011;55230;42.602;23.470;2023-12-28T12:07:02;14.13;;;10.23;;
11052;SDS011;55230;42.602;23.470;2023-12-28T12:09:31;17.33;;;12.32;;
11052;SDS011;55230;42.602;23.470;2023-12-28T12:12:00;18.70;;;12.85;;
11052;SDS011;55230;42.602;23.470;2023-12-28T12:14:26;20.05;;;12.88;;
11052;SDS011;55230;42.602;23.470;2023-12-28T12:16:53;23.33;;;14.82;;
11052;SDS011;55230;42.602;23.470;2023-12-28T12:19:22;25.52;;;17.55;;
11052;SDS011;55230;42.602;23.470;2023-12-28T12:21:53;27.27;;;20.40;;
11052;SDS011;55230;42.602;23.470;2023-12-28T12:24:19;25.45;;;17.63;;
11052;SDS011;55230;42.602;23.470;2023-12-28T12:26:45;25.13;;;17.13;;
11052;SDS011;55230;42.602;23.470;2023-12-28T12:29:11;24.48;;;17.73;;
11052;SDS011;55230;42.602;23.470;2023-12-28T12:31:38;21.73;;;15.20;;
11052;SDS011;55230;42.602;23.470;2023-12-28T12:34:06;19.48;;;13.13;;
11052;SDS011;55230;42.602;23.470;2023-12-28T12:36:33;20.42;;;15.02;;
11052;SDS011;55230;42.602;23.470;2023-12-28T12:38:59;20.65;;;14.45;;
11052;SDS011;55230;42.602;23.470;2023-12-28T12:41:25;22.35;;;15.82;;
11052;SDS011;55230;42.602;23.470;2023-12-28T12:43:51;21.65;;;16.98;;
11052;SDS011;55230;42.602;23.470;2023-12-28T12:46:17;18.83;;;14.20;;
11052;SDS011;55230;42.602;23.470;2023-12-28T12:48:42;19.35;;;14.13;;
11052;SDS011;55230;42.602;23.470;2023-12-28T12:51:08;19.17;;;14.32;;
11052;SDS011;55230;42.602;23.470;2023-12-28T12:53:34;21.00;;;13.52;;
11052;SDS011;55230;42.602;23.470;2023-12-28T12:56:00;22.42;;;14.40;;
11052;SDS011;55230;42.602;23.470;2023-12-28T12:58:26;21.52;;;14.90;;
11052;SDS011;55230;42.602;23.470;2023-12-28T13:00:52;23.80;;;15.60;;
11052;SDS011;55230;42.602;23.470;2023-12-28T13:03:19;23.23;;;14.05;;
11052;SDS011;55230;42.602;23.470;2023-12-28T13:05:45;20.33;;;14.13;;
11052;SDS011;55230;42.602;23.470;2023-12-28T13:08:10;24.15;;;15.98;;
11052;SDS011;55230;42.602;23.470;2023-12-28T13:10:36;18.05;;;12.13;;
11052;SDS011;55230;42.602;23.470;2023-12-28T13:13:01;15.57;;;10.77;;
11052;SDS011;55230;42.602;23.470;2023-12-28T13:15:26;32.08;;;18.33;;
11052;SDS011;55230;42.602;23.470;2023-12-28T13:17:52;33.63;;;19.05;;
11052;SDS011;55230;42.602;23.470;2023-12-28T13:20:18;46.83;;;25.67;;
11052;SDS011;55230;42.602;23.470;2023-12-28T13:22:43;86.10;;;43.72;;
11052;SDS011;55230;42.602;23.470;2023-12-28T13:25:09;86.10;;;43.05;;
11052;SDS011;55230;42.602;23.470;2023-12-28T13:27:34;64.25;;;33.92;;
11052;SDS011;55230;42.602;23.470;2023-12-28T13:30:00;33.47;;;21.77;;
11052;SDS011;55230;42.602;23.470;2023-12-28T13:32:25;21.52;;;14.18;;
11052;SDS011;55230;42.602;23.470;2023-12-28T13:34:50;17.00;;;12.27;;
11052;SDS011;55230;42.602;23.470;2023-12-28T13:37:16;14.93;;;8.98;;
11052;SDS011;55230;42.602;23.470;2023-12-28T13:39:42;10.05;;;7.30;;
11052;SDS011;55230;42.602;23.470;2023-12-28T13:42:08;8.93;;;6.68;;
11052;SDS011;55230;42.602;23.470;2023-12-28T13:44:34;13.05;;;8.02;;
11052;SDS011;55230;42.602;23.470;2023-12-28T13:47:00;10.15;;;7.72;;
11052;SDS011;55230;42.602;23.470;2023-12-28T13:49:30;18.65;;;11.55;;
11052;SDS011;55230;42.602;23.470;2023-12-28T13:51:56;10.20;;;7.72;;
11052;SDS011;55230;42.602;23.470;2023-12-28T13:54:21;5.22;;;4.72;;
11052;SDS011;55230;42.602;23.470;2023-12-28T13:56:47;5.93;;;5.35;;
11052;SDS011;55230;42.602;23.470;2023-12-28T13:59:13;5.18;;;4.68;;
11052;SDS011;55230;42.602;23.470;2023-12-28T14:01:39;10.10;;;7.60;;
11052;SDS011;55230;42.602;23.470;2023-12-28T14:04:05;6.53;;;5.80;;
11052;SDS011;55230;42.602;23.470;2023-12-28T14:06:30;8.93;;;6.65;;
11052;SDS011;55230;42.602;23.470;2023-12-28T14:08:56;11.35;;;7.45;;
11052;SDS011;55230;42.602;23.470;2023-12-28T14:11:22;13.95;;;8.45;;
11052;SDS011;55230;42.602;23.470;2023-12-28T14:13:48;8.85;;;6.60;;
11052;SDS011;55230;42.602;23.470;2023-12-28T14:16:13;6.45;;;5.85;;
11052;SDS011;55230;42.602;23.470;2023-12-28T14:18:39;7.18;;;6.20;;
11052;SDS011;55230;42.602;23.470;2023-12-28T14:21:10;5.93;;;5.43;;
11052;SDS011;55230;42.602;23.470;2023-12-28T14:23:38;4.93;;;4.43;;
11052;SDS011;55230;42.602;23.470;2023-12-28T14:26:06;6.97;;;6.28;;
11052;SDS011;55230;42.602;23.470;2023-12-28T14:28:39;5.55;;;4.93;;
11052;SDS011;55230;42.602;23.470;2023-12-28T14:31:09;7.53;;;5.10;;
11052;SDS011;55230;42.602;23.470;2023-12-28T14:33:35;12.07;;;7.05;;
11052;SDS011;55230;42.602;23.470;2023-12-28T14:36:01;9.98;;;6.07;;
11052;SDS011;55230;42.602;23.470;2023-12-28T14:38:27;5.07;;;3.95;;
11052;SDS011;55230;42.602;23.470;2023-12-28T14:40:53;4.90;;;4.40;;
11052;SDS011;55230;42.602;23.470;2023-12-28T14:43:18;5.20;;;4.25;;
11052;SDS011;55230;42.602;23.470;2023-12-28T14:45:44;4.95;;;4.25;;
11052;SDS011;55230;42.602;23.470;2023-12-28T14:48:11;6.43;;;3.65;;
11052;SDS011;55230;42.602;23.470;2023-12-28T14:50:37;7.30;;;5.32;;
11052;SDS011;55230;42.602;23.470;2023-12-28T14:53:02;9.43;;;5.75;;
11052;SDS011;55230;42.602;23.470;2023-12-28T14:55:27;9.40;;;6.20;;
11052;SDS011;55230;42.602;23.470;2023-12-28T14:57:53;61.35;;;28.65;;
11052;SDS011;55230;42.602;23.470;2023-12-28T15:00:18;47.03;;;22.45;;
11052;SDS011;55230;42.602;23.470;2023-12-28T15:02:44;15.82;;;8.85;;
11052;SDS011;55230;42.602;23.470;2023-12-28T15:05:09;9.32;;;7.18;;
11052;SDS011;55230;42.602;23.470;2023-12-28T15:07:37;12.43;;;8.05;;
11052;SDS011;55230;42.602;23.470;2023-12-28T15:10:03;128.30;;;43.33;;
11052;SDS011;55230;42.602;23.470;2023-12-28T15:12:29;94.10;;;38.35;;
11052;SDS011;55230;42.602;23.470;2023-12-28T15:14:54;45.80;;;20.40;;
11052;SDS011;55230;42.602;23.470;2023-12-28T15:17:20;106.68;;;42.42;;
11052;SDS011;55230;42.602;23.470;2023-12-28T15:19:47;100.55;;;40.55;;
11052;SDS011;55230;42.602;23.470;2023-12-28T15:22:13;131.00;;;47.50;;
11052;SDS011;55230;42.602;23.470;2023-12-28T15:24:39;285.38;;;81.85;;
11052;SDS011;55230;42.602;23.470;2023-12-28T15:27:04;134.60;;;45.92;;
11052;SDS011;55230;42.602;23.470;2023-12-28T15:29:32;93.78;;;35.05;;
11052;SDS011;55230;42.602;23.470;2023-12-28T15:31:58;92.35;;;36.60;;
11052;SDS011;55230;42.602;23.470;2023-12-28T15:34:23;70.10;;;33.10;;
11052;SDS011;55230;42.602;23.470;2023-12-28T15:36:48;50.63;;;23.50;;